Time;durP1;ratioP1;P1;durP2;ratioP2;P2;SDS_P1;SDS_P2;PMS_P1;PMS_P2;Temp;Humidity;BMP_temperature;BMP_pressure;BME280_temperature;BME280_humidity;BME280_pressure;Samples;Min_cycle;Max_cycle;Signal;HPM_P1;HPM_P2
2022/03/15 00:01:17;;;;;;;29.67;18.30;;;;;;;6.45;76.50;102589.63;4992103;28;20049;-92
2022/03/15 00:03:42;;;;;;;27.85;18.67;;;;;;;6.44;76.32;102579.94;4987666;28;20034;-93
2022/03/15 00:06:07;;;;;;;27.70;18.00;;;;;;;6.52;76.48;102587.81;4984731;28;20033;-92
2022/03/15 00:08:33;;;;;;;28.83;18.33;;;;;;;6.52;76.39;102592.22;4990811;28;20030;-92
2022/03/15 00:11:02;;;;;;;27.10;17.65;;;;;;;6.48;76.62;102584.31;4982961;28;20034;-93
2022/03/15 00:13:28;;;;;;;23.02;17.25;;;;;;;6.57;76.67;102590.44;4985311;28;20393;-92
2022/03/15 00:15:54;;;;;;;31.02;17.67;;;;;;;6.59;76.39;102599.22;4985017;28;20022;-94
2022/03/15 00:18:20;;;;;;;27.98;17.60;;;;;;;6.45;76.45;102576.38;4983116;28;20041;-93
2022/03/15 00:20:46;;;;;;;28.63;17.48;;;;;;;6.52;76.40;102590.47;4989287;28;20030;-93
2022/03/15 00:23:11;;;;;;;28.27;16.73;;;;;;;6.40;76.83;102572.03;4978338;28;20392;-93
2022/03/15 00:25:37;;;;;;;25.85;17.20;;;;;;;6.43;76.54;102583.44;4983996;28;20077;-92
2022/03/15 00:28:02;;;;;;;29.50;17.52;;;;;;;6.39;76.75;102578.19;4988008;28;20029;-93
2022/03/15 00:30:27;;;;;;;27.17;16.75;;;;;;;6.42;77.02;102584.34;4987861;28;20536;-93
2022/03/15 00:32:53;;;;;;;24.48;16.00;;;;;;;6.47;76.78;102595.75;4981187;28;20468;-93
2022/03/15 00:35:19;;;;;;;27.83;17.00;;;;;;;6.35;77.19;102581.72;4986484;28;20057;-92
2022/03/15 00:37:45;;;;;;;27.33;16.50;;;;;;;6.35;77.12;102581.72;4985541;28;20022;-91
2022/03/15 00:40:12;;;;;;;26.67;16.38;;;;;;;6.40;77.43;102594.06;4988616;28;20030;-93
2022/03/15 00:42:37;;;;;;;27.90;16.90;;;;;;;6.40;77.23;102594.06;4980338;28;20440;-91
2022/03/15 00:45:04;;;;;;;29.15;17.73;;;;;;;6.32;77.11;102590.56;4987745;28;20026;-91
2022/03/15 00:47:30;;;;;;;26.45;17.15;;;;;;;6.28;77.05;102588.84;4982426;28;20085;-91
2022/03/15 00:49:56;;;;;;;25.83;16.80;;;;;;;6.36;77.30;102596.72;4982001;28;20019;-92
2022/03/15 00:52:21;;;;;;;28.73;16.23;;;;;;;6.27;76.89;102579.16;4984633;28;20037;-93
2022/03/15 00:54:47;;;;;;;28.20;16.73;;;;;;;6.33;77.27;102587.03;4988749;28;20026;-93
2022/03/15 00:57:12;;;;;;;29.20;17.33;;;;;;;6.30;77.08;102584.41;4981912;28;20054;-92
2022/03/15 00:59:37;;;;;;;24.17;16.02;;;;;;;6.26;76.94;102580.00;4982987;28;20041;-92
2022/03/15 01:02:03;;;;;;;24.83;15.85;;;;;;;6.21;77.42;102580.03;4989009;28;20412;-92
2022/03/15 01:04:28;;;;;;;26.88;17.30;;;;;;;6.24;77.30;102580.03;4990321;28;20034;-93
2022/03/15 01:06:54;;;;;;;24.80;16.52;;;;;;;6.12;77.32;102571.28;4988023;28;20042;-93
2022/03/15 01:09:19;;;;;;;24.98;16.38;;;;;;;6.06;77.49;102560.72;4987699;28;20096;-93
2022/03/15 01:11:44;;;;;;;23.67;15.20;;;;;;;6.12;77.54;102582.72;4971090;28;20049;-93
2022/03/15 01:14:10;;;;;;;28.58;16.25;;;;;;;6.11;77.82;102594.19;4984497;28;20042;-93
2022/03/15 01:16:35;;;;;;;24.58;16.27;;;;;;;5.98;78.00;102585.44;4988145;28;20030;-92
2022/03/15 01:19:01;;;;;;;27.77;16.13;;;;;;;6.02;77.82;102578.38;4988885;28;20038;-92
2022/03/15 01:21:28;;;;;;;27.60;15.95;;;;;;;5.98;77.61;102580.16;4985976;28;20129;-93
2022/03/15 01:23:53;;;;;;;25.42;17.38;;;;;;;6.02;78.01;102586.31;4982054;28;20121;-93
2022/03/15 01:26:19;;;;;;;27.10;18.27;;;;;;;5.94;77.80;102567.84;4979507;28;20117;-93
2022/03/15 01:28:44;;;;;;;27.67;17.20;;;;;;;5.89;78.12;102559.00;4986845;28;20174;-94
2022/03/15 01:31:11;;;;;;;28.92;16.98;;;;;;;5.97;77.82;102566.94;4989428;28;20167;-92
2022/03/15 01:33:36;;;;;;;34.33;17.13;;;;;;;5.93;78.04;102552.84;4985492;28;20018;-93
2022/03/15 01:36:02;;;;;;;27.83;16.98;;;;;;;5.92;78.05;102564.31;4980734;28;20065;-93
2022/03/15 01:38:27;;;;;;;28.00;16.85;;;;;;;5.91;78.25;102546.66;4984500;28;20061;-93
2022/03/15 01:40:53;;;;;;;24.45;15.50;;;;;;;5.73;78.42;102526.50;4986025;28;20026;-92
2022/03/15 01:43:18;;;;;;;22.10;15.50;;;;;;;5.87;78.12;102546.69;4990187;28;20038;-93
2022/03/15 01:45:43;;;;;;;27.30;16.50;;;;;;;5.84;78.03;102544.94;4976199;28;20388;-93
2022/03/15 01:48:09;;;;;;;23.65;16.08;;;;;;;5.82;78.09;102541.44;4981234;28;20051;-92
2022/03/15 01:50:36;;;;;;;24.63;15.07;;;;;;;5.89;78.19;102547.53;4982074;28;20030;-93
2022/03/15 01:53:02;;;;;;;26.33;16.20;;;;;;;5.91;78.21;102556.38;4985526;28;20089;-92
2022/03/15 01:55:28;;;;;;;24.73;16.05;;;;;;;5.84;78.33;102546.69;4981242;28;20082;-93
2022/03/15 01:57:54;;;;;;;25.42;16.20;;;;;;;5.87;78.34;102566.06;4982405;28;20407;-92
2022/03/15 02:00:20;;;;;;;24.90;15.60;;;;;;;5.85;78.61;102548.44;4985557;28;20038;-92
2022/03/15 02:02:46;;;;;;;28.38;16.95;;;;;;;5.85;78.67;102553.72;4986627;28;20038;-91
2022/03/15 02:05:11;;;;;;;25.88;15.60;;;;;;;5.85;78.63;102554.63;4982412;28;20037;-92
2022/03/15 02:07:38;;;;;;;23.95;15.35;;;;;;;5.84;78.54;102546.69;4988493;28;20084;-93
2022/03/15 02:10:05;;;;;;;23.17;15.35;;;;;;;5.84;78.69;102544.06;4983071;28;20031;-94
2022/03/15 02:12:31;;;;;;;25.52;15.07;;;;;;;5.84;78.50;102541.41;4977044;28;20050;-92
2022/03/15 02:15:02;;;;;;;24.63;14.93;;;;;;;5.80;78.68;102537.03;4977442;28;20030;-92
2022/03/15 02:17:28;;;;;;;22.65;14.60;;;;;;;5.70;78.46;102528.25;4985609;28;20073;-92
2022/03/15 02:19:54;;;;;;;21.55;14.20;;;;;;;5.79;78.35;102541.44;4980053;28;20030;-93
2022/03/15 02:22:19;;;;;;;25.15;14.55;;;;;;;5.68;78.48;102522.09;4985839;28;20039;-93
2022/03/15 02:24:45;;;;;;;25.67;15.65;;;;;;;5.77;78.39;102531.75;4983289;28;20034;-92
2022/03/15 02:27:12;;;;;;;19.45;14.48;;;;;;;5.75;78.62;102530.00;4985184;28;20088;-92
2022/03/15 02:29:37;;;;;;;23.17;14.63;;;;;;;5.69;78.60;102519.47;4982503;28;20081;-92
2022/03/15 02:32:03;;;;;;;24.45;13.80;;;;;;;5.73;78.63;102518.56;4982706;28;20113;-92
2022/03/15 02:34:28;;;;;;;20.83;14.95;;;;;;;5.72;78.80;102513.28;4997551;28;20062;-94
2022/03/15 02:36:53;;;;;;;22.60;13.77;;;;;;;5.69;78.71;102510.66;4987385;28;20022;-92
2022/03/15 02:39:19;;;;;;;24.77;14.82;;;;;;;5.59;78.61;102503.63;4985794;28;20034;-94
2022/03/15 02:41:44;;;;;;;23.02;14.23;;;;;;;5.64;78.56;102501.84;4990294;28;20025;-93
2022/03/15 02:44:10;;;;;;;21.75;14.10;;;;;;;5.55;78.71;102481.63;4990172;28;20033;-92
2022/03/15 02:46:39;;;;;;;20.10;13.63;;;;;;;5.53;78.57;102478.13;4984018;28;20085;-92
2022/03/15 02:49:04;;;;;;;23.25;14.25;;;;;;;5.57;78.69;102492.22;4983914;28;20546;-93
2022/03/15 02:51:31;;;;;;;22.77;14.20;;;;;;;5.55;78.69;102483.41;4984677;28;20022;-92
2022/03/15 02:53:57;;;;;;;23.55;14.80;;;;;;;5.50;78.64;102476.38;4983621;28;20114;-92
2022/03/15 02:56:22;;;;;;;21.08;14.00;;;;;;;5.55;78.46;102478.13;4980230;28;20121;-91
2022/03/15 02:58:48;;;;;;;23.02;14.80;;;;;;;5.60;78.44;102500.09;4983893;28;20102;-95
2022/03/15 03:01:14;;;;;;;23.33;14.48;;;;;;;5.60;78.54;102492.19;4980113;28;20085;-93
2022/03/15 03:03:39;;;;;;;25.33;13.30;;;;;;;5.59;78.25;102488.66;4986295;28;20046;-93
2022/03/15 03:06:04;;;;;;;24.48;13.77;;;;;;;5.59;78.35;102486.03;4981065;28;20037;-94
2022/03/15 03:08:31;;;;;;;22.02;14.13;;;;;;;5.54;78.41;102479.00;4985744;28;20038;-93
2022/03/15 03:11:00;;;;;;;21.17;13.73;;;;;;;5.58;78.42;102486.91;4990582;28;20038;-93
2022/03/15 03:13:26;;;;;;;20.23;13.45;;;;;;;5.59;78.18;102472.81;4995649;28;20093;-93
2022/03/15 03:15:57;;;;;;;23.15;14.18;;;;;;;5.58;78.38;102468.44;4984819;28;20383;-93
2022/03/15 03:18:23;;;;;;;19.67;12.70;;;;;;;5.40;78.35;102435.06;4976040;28;20038;-93
2022/03/15 03:20:49;;;;;;;23.10;13.98;;;;;;;5.45;78.55;102435.91;4984706;28;20022;-93
2022/03/15 03:23:15;;;;;;;18.30;12.52;;;;;;;5.48;78.55;102449.13;4981028;28;20097;-94
2022/03/15 03:25:40;;;;;;;18.80;13.27;;;;;;;5.45;78.37;102442.97;4981903;28;20085;-92
2022/03/15 03:28:07;;;;;;;19.52;13.48;;;;;;;5.43;78.63;102447.34;4979688;28;20031;-93
2022/03/15 03:30:34;;;;;;;18.13;12.85;;;;;;;5.40;78.42;102444.75;4982994;28;20027;-93
2022/03/15 03:32:59;;;;;;;20.02;12.32;;;;;;;5.43;78.70;102448.25;4980308;28;20023;-93
2022/03/15 03:35:25;;;;;;;23.98;13.80;;;;;;;5.43;78.45;102448.25;4980807;28;20038;-92
2022/03/15 03:37:50;;;;;;;15.98;12.32;;;;;;;5.49;78.38;102449.97;4985691;28;20058;-93
2022/03/15 03:40:15;;;;;;;21.77;13.15;;;;;;;5.48;78.51;102450.88;4989635;28;20447;-93
2022/03/15 03:42:41;;;;;;;18.77;13.05;;;;;;;5.49;78.57;102449.97;4991006;28;20373;-92
2022/03/15 03:45:07;;;;;;;19.90;13.60;;;;;;;5.49;78.31;102453.50;4986264;28;20038;-92
2022/03/15 03:47:32;;;;;;;24.02;13.60;;;;;;;5.46;78.43;102450.88;4988458;28;20035;-92
2022/03/15 03:49:57;;;;;;;20.02;13.32;;;;;;;5.46;78.42;102450.88;4994531;28;20038;-91
2022/03/15 03:52:23;;;;;;;25.58;12.98;;;;;;;5.31;78.33;102421.91;4993467;28;20030;-91
2022/03/15 03:54:48;;;;;;;19.80;13.05;;;;;;;5.43;78.79;102442.06;4982555;28;20074;-93
2022/03/15 03:57:13;;;;;;;17.35;12.82;;;;;;;5.30;78.65;102412.19;4986024;28;20050;-94
2022/03/15 03:59:39;;;;;;;25.55;13.70;;;;;;;5.34;78.54;102428.91;4985610;28;20026;-93
2022/03/15 04:02:04;;;;;;;21.42;12.40;;;;;;;5.41;78.44;102443.84;4991025;28;20033;-92
2022/03/15 04:04:29;;;;;;;23.42;13.50;;;;;;;5.38;78.78;102444.72;4985521;28;20026;-93
2022/03/15 04:06:55;;;;;;;22.20;12.60;;;;;;;5.35;78.83;102436.84;4983209;28;20565;-94
2022/03/15 04:09:21;;;;;;;18.70;12.73;;;;;;;5.40;78.64;102448.25;4978156;28;20046;-93
2022/03/15 04:11:47;;;;;;;24.33;13.00;;;;;;;5.40;78.65;102448.25;4988292;28;20030;-93
2022/03/15 04:14:12;;;;;;;19.33;13.23;;;;;;;5.31;78.78;102437.75;4987323;28;20400;-93
2022/03/15 04:16:38;;;;;;;23.90;13.00;;;;;;;5.38;78.72;102457.06;4986892;28;20026;-93
2022/03/15 04:19:04;;;;;;;18.42;13.13;;;;;;;5.35;79.10;102457.97;4989236;28;20030;-93
2022/03/15 04:21:30;;;;;;;20.90;13.40;;;;;;;5.28;78.58;102455.34;4983491;28;20018;-93
2022/03/15 04:23:56;;;;;;;21.05;13.45;;;;;;;5.30;79.01;102462.34;4983768;28;20494;-93
2022/03/15 04:26:22;;;;;;;22.45;13.25;;;;;;;5.29;78.66;102460.59;4990134;28;20408;-94
2022/03/15 04:28:48;;;;;;;23.35;13.40;;;;;;;5.23;79.13;102450.09;4986627;28;20184;-93
2022/03/15 04:31:13;;;;;;;25.27;14.23;;;;;;;5.27;79.01;102453.56;4983042;28;20524;-94
2022/03/15 04:33:39;;;;;;;24.90;13.80;;;;;;;5.17;79.36;102444.81;4979094;28;20045;-93
2022/03/15 04:36:05;;;;;;;22.05;13.85;;;;;;;5.22;79.25;102454.50;4977624;28;20041;-92
2022/03/15 04:38:30;;;;;;;26.08;13.52;;;;;;;5.24;79.39;102462.41;4983222;28;20022;-92
2022/03/15 04:40:58;;;;;;;25.45;14.18;;;;;;;5.16;79.26;102456.25;4986494;28;20023;-94
2022/03/15 04:43:23;;;;;;;22.90;13.98;;;;;;;5.14;79.16;102445.72;4984098;28;20019;-93
2022/03/15 04:45:50;;;;;;;26.08;13.80;;;;;;;5.11;79.41;102440.44;4987228;28;20100;-93
2022/03/15 04:48:16;;;;;;;23.33;13.45;;;;;;;5.13;79.13;102432.50;4983842;28;20109;-94
2022/03/15 04:50:42;;;;;;;21.45;13.73;;;;;;;5.04;79.58;102428.13;4987485;28;20030;-94
2022/03/15 04:53:07;;;;;;;21.35;13.23;;;;;;;5.07;79.53;102425.50;4989286;28;20026;-94
2022/03/15 04:55:32;;;;;;;20.15;13.02;;;;;;;5.05;79.25;102426.38;4989135;28;20387;-93
2022/03/15 04:57:58;;;;;;;20.85;13.73;;;;;;;5.08;79.40;102423.72;4988711;28;20421;-93
2022/03/15 05:00:23;;;;;;;22.15;13.88;;;;;;;5.09;79.20;102430.75;4983277;28;20079;-93
2022/03/15 05:02:48;;;;;;;21.33;13.95;;;;;;;5.13;79.62;102427.22;4984450;28;20118;-93
2022/03/15 05:05:14;;;;;;;24.45;13.48;;;;;;;5.07;79.61;102420.22;4985511;28;20117;-93
2022/03/15 05:07:39;;;;;;;21.17;14.15;;;;;;;5.05;79.35;102416.69;4984474;28;20066;-93
2022/03/15 05:12:50;;;;;;;22.60;14.75;;;;;;;5.04;79.68;102416.69;4987659;28;20108;-91
2022/03/15 05:15:15;;;;;;;19.92;13.10;;;;;;;5.05;79.30;102419.31;4988359;28;20110;-93
2022/03/15 05:17:40;;;;;;;20.45;14.00;;;;;;;5.02;79.65;102408.78;4978611;28;20448;-92
2022/03/15 05:20:07;;;;;;;20.08;14.25;;;;;;;5.08;79.83;102421.09;4989131;28;20026;-92
2022/03/15 05:22:33;;;;;;;19.88;14.38;;;;;;;5.07;79.72;102420.22;4988650;28;20015;-93
2022/03/15 05:24:59;;;;;;;22.45;13.98;;;;;;;5.02;79.85;102414.06;4990426;28;20026;-91
2022/03/15 05:27:25;;;;;;;19.65;13.00;;;;;;;5.06;80.05;102420.19;4989074;28;20045;-93
2022/03/15 05:29:51;;;;;;;26.00;14.43;;;;;;;4.98;80.00;102409.69;4990014;28;20404;-93
2022/03/15 05:32:16;;;;;;;20.65;12.93;;;;;;;5.05;79.96;102415.81;4990174;28;20228;-93
2022/03/15 05:34:42;;;;;;;22.70;14.80;;;;;;;4.98;79.89;102407.03;4972723;28;20498;-93
2022/03/15 05:37:08;;;;;;;23.02;14.07;;;;;;;4.97;79.99;102411.44;4982123;28;20035;-93
2022/03/15 05:39:34;;;;;;;23.83;14.13;;;;;;;5.02;80.08;102410.53;4983897;28;20102;-93
2022/03/15 05:41:59;;;;;;;21.85;13.75;;;;;;;5.03;80.00;102409.66;4971439;28;20034;-92
2022/03/15 05:44:26;;;;;;;22.10;15.00;;;;;;;4.91;80.39;102387.69;4987598;28;20033;-93
2022/03/15 05:46:52;;;;;;;20.90;13.48;;;;;;;4.99;80.03;102408.78;4978207;28;20089;-92
2022/03/15 05:49:17;;;;;;;20.08;13.50;;;;;;;5.00;80.12;102400.88;4987171;28;20034;-93
2022/03/15 05:51:42;;;;;;;17.63;14.27;;;;;;;4.85;80.10;102377.19;4989537;28;20038;-92
2022/03/15 05:54:08;;;;;;;23.00;14.57;;;;;;;4.87;80.83;102391.22;4977272;28;20137;-92
2022/03/15 05:56:34;;;;;;;20.83;13.85;;;;;;;4.87;80.31;102388.59;4987308;28;20022;-93
2022/03/15 05:58:59;;;;;;;27.63;15.00;;;;;;;4.87;80.27;102385.06;5005796;28;20578;-92
2022/03/15 06:01:24;;;;;;;22.55;15.50;;;;;;;4.85;80.65;102376.28;4985417;28;20092;-92
2022/03/15 06:03:50;;;;;;;23.35;15.05;;;;;;;4.82;80.51;102377.19;4987809;28;20419;-92
2022/03/15 06:06:16;;;;;;;29.15;15.93;;;;;;;4.93;80.41;102396.50;4982433;28;20030;-93
2022/03/15 06:08:41;;;;;;;26.42;16.58;;;;;;;4.88;80.18;102387.69;4960147;28;20060;-92
2022/03/15 06:11:07;;;;;;;23.88;17.33;;;;;;;4.92;80.45;102392.09;4983786;28;20023;-92
2022/03/15 06:13:33;;;;;;;24.67;16.98;;;;;;;4.94;80.31;102394.75;4978790;28;20042;-92
2022/03/15 06:15:58;;;;;;;22.85;15.80;;;;;;;4.93;80.37;102388.59;4978601;28;20060;-92
2022/03/15 06:18:24;;;;;;;28.05;17.08;;;;;;;4.91;80.13;102384.19;4989986;28;20026;-94
2022/03/15 06:20:50;;;;;;;28.63;16.80;;;;;;;4.96;80.00;102393.84;4988974;28;20502;-92
2022/03/15 06:23:18;;;;;;;23.90;15.77;;;;;;;4.93;79.81;102388.59;4989013;28;20022;-93
2022/03/15 06:25:44;;;;;;;20.48;15.35;;;;;;;5.02;79.78;102405.25;4987278;28;20034;-94
2022/03/15 06:28:09;;;;;;;29.17;14.65;;;;;;;4.88;79.79;102377.16;4974875;28;20031;-93
2022/03/15 06:30:35;;;;;;;25.08;14.45;;;;;;;4.99;79.28;102383.28;4978448;28;20057;-93
2022/03/15 06:33:00;;;;;;;19.90;13.45;;;;;;;4.91;79.16;102363.09;4988791;28;20023;-92
2022/03/15 06:35:26;;;;;;;19.58;13.13;;;;;;;5.02;78.97;102376.22;4985694;28;20051;-92
2022/03/15 06:37:52;;;;;;;17.35;12.23;;;;;;;5.07;78.82;102379.75;4985985;28;20037;-92
2022/03/15 06:40:25;;;;;;;20.88;12.27;;;;;;;5.14;78.56;102382.38;4990495;28;20026;-92
2022/03/15 06:42:51;;;;;;;19.33;12.25;;;;;;;5.05;78.18;102358.63;4990300;28;20379;-93
2022/03/15 06:45:17;;;;;;;21.33;12.02;;;;;;;5.12;78.31;102365.63;4988179;28;20101;-94
2022/03/15 06:47:43;;;;;;;19.02;10.88;;;;;;;5.19;78.07;102374.44;4984868;28;20464;-93
2022/03/15 06:50:09;;;;;;;18.17;11.02;;;;;;;5.19;78.12;102372.66;4983554;28;20113;-94
2022/03/15 06:52:36;;;;;;;20.58;11.98;;;;;;;5.18;78.05;102362.09;4991418;28;20023;-93
2022/03/15 06:55:02;;;;;;;16.55;10.70;;;;;;;5.22;78.06;102361.19;4983700;28;20034;-92
2022/03/15 06:57:28;;;;;;;16.75;11.25;;;;;;;5.22;77.79;102363.84;4984598;28;20458;-90
2022/03/15 06:59:56;;;;;;;19.58;10.77;;;;;;;5.29;77.76;102360.28;4988081;28;20042;-91
2022/03/15 07:02:22;;;;;;;13.90;9.52;;;;;;;5.35;77.71;102359.38;4987883;28;20030;-92
2022/03/15 07:04:47;;;;;;;17.33;11.38;;;;;;;5.39;77.44;102369.94;4987864;28;20036;-90
2022/03/15 07:07:13;;;;;;;16.20;10.00;;;;;;;5.32;77.39;102348.84;4976251;28;20058;-92
2022/03/15 07:09:38;;;;;;;18.45;10.73;;;;;;;5.41;77.37;102352.31;4977374;28;20030;-91
2022/03/15 07:12:04;;;;;;;15.65;10.60;;;;;;;5.47;77.09;102349.63;4978416;28;20031;-92
2022/03/15 07:14:30;;;;;;;15.93;9.85;;;;;;;5.53;76.77;102353.13;4988777;28;20061;-93
2022/03/15 07:16:55;;;;;;;13.80;9.60;;;;;;;5.54;76.44;102347.84;4991437;28;20022;-92
2022/03/15 07:19:20;;;;;;;16.58;9.50;;;;;;;5.56;76.31;102348.72;4986943;28;20030;-92
2022/03/15 07:21:46;;;;;;;16.55;9.55;;;;;;;5.68;76.39;102363.59;4983492;28;20033;-93
2022/03/15 07:24:11;;;;;;;15.07;9.73;;;;;;;5.62;76.25;102343.38;4988380;28;20026;-93
2022/03/15 07:26:36;;;;;;;19.25;9.60;;;;;;;5.72;76.09;102355.63;4987041;28;20045;-93
2022/03/15 07:29:02;;;;;;;14.73;9.10;;;;;;;5.68;75.73;102339.81;4974790;28;20443;-93
2022/03/15 07:31:28;;;;;;;16.00;8.80;;;;;;;5.70;75.80;102338.06;4990253;28;20551;-94
2022/03/15 07:33:53;;;;;;;15.48;9.48;;;;;;;5.64;75.89;102327.50;4983133;28;20030;-93
2022/03/15 07:36:19;;;;;;;17.25;9.00;;;;;;;5.83;75.58;102347.63;4987044;28;20054;-94
2022/03/15 07:38:44;;;;;;;14.43;8.80;;;;;;;5.91;75.44;102352.88;4992075;28;20034;-93
2022/03/15 07:41:10;;;;;;;18.52;8.77;;;;;;;5.95;75.41;102355.50;4993661;28;20379;-91
2022/03/15 07:43:35;;;;;;;17.02;9.30;;;;;;;5.97;75.07;102344.91;4980377;28;20081;-93
2022/03/15 07:46:01;;;;;;;13.68;8.15;;;;;;;6.03;74.53;102351.94;4991343;28;20185;-93
2022/03/15 07:48:26;;;;;;;15.48;8.57;;;;;;;6.01;74.68;102335.22;4987656;28;20022;-90
2022/03/15 07:50:52;;;;;;;16.10;8.45;;;;;;;6.11;74.51;102352.75;4987407;28;20046;-92
2022/03/15 07:53:18;;;;;;;14.40;8.18;;;;;;;6.05;74.36;102343.09;4992424;28;20046;-91
2022/03/15 07:55:43;;;;;;;13.05;8.18;;;;;;;6.21;74.50;102354.44;4986942;28;20420;-94
2022/03/15 07:58:08;;;;;;;19.25;8.30;;;;;;;6.23;74.25;102350.00;4990010;28;20019;-93
2022/03/15 08:00:34;;;;;;;14.55;8.15;;;;;;;6.31;73.89;102350.81;4989522;28;20030;-92
2022/03/15 08:02:59;;;;;;;14.77;8.10;;;;;;;6.35;73.65;102343.72;4989584;28;20080;-92
2022/03/15 08:05:26;;;;;;;17.05;8.30;;;;;;;6.34;73.87;102328.75;4989666;28;20107;-91
2022/03/15 08:07:51;;;;;;;14.85;7.90;;;;;;;6.45;73.32;102338.34;4992517;28;20030;-92
2022/03/15 08:10:16;;;;;;;15.27;8.43;;;;;;;6.51;72.82;102329.44;4988727;28;20220;-92
2022/03/15 08:12:42;;;;;;;21.48;8.43;;;;;;;6.54;72.71;102326.78;4983979;28;20054;-91
2022/03/15 08:15:09;;;;;;;10.75;7.72;;;;;;;6.62;72.73;102332.00;4981149;28;20060;-91
2022/03/15 08:17:36;;;;;;;17.48;7.18;;;;;;;6.65;72.46;102329.31;4984929;28;20045;-91
2022/03/15 08:20:01;;;;;;;16.17;7.35;;;;;;;6.66;72.51;102324.00;4987868;28;20567;-92
2022/03/15 08:22:30;;;;;;;13.80;6.82;;;;;;;6.72;72.49;102326.56;4986983;28;20572;-92
2022/03/15 08:24:56;;;;;;;15.43;7.82;;;;;;;6.79;72.30;102327.38;4985102;28;20125;-91
2022/03/15 08:27:21;;;;;;;12.63;7.13;;;;;;;6.84;72.28;102322.91;4988937;28;20042;-92
2022/03/15 08:29:47;;;;;;;12.95;6.88;;;;;;;6.84;71.99;102317.63;4988821;28;20432;-90
2022/03/15 08:32:12;;;;;;;14.85;7.20;;;;;;;6.80;71.90;102300.03;4986197;28;20033;-91
2022/03/15 08:34:38;;;;;;;11.50;7.38;;;;;;;6.85;71.78;102305.25;4968378;28;20050;-92
2022/03/15 08:37:04;;;;;;;11.95;7.32;;;;;;;6.88;71.89;102306.09;4989185;28;20392;-91
2022/03/15 08:39:29;;;;;;;12.85;7.20;;;;;;;6.81;71.52;102279.72;4986066;28;20030;-90
2022/03/15 08:41:55;;;;;;;13.63;7.75;;;;;;;6.99;71.77;102295.41;4992671;28;20038;-92
2022/03/15 08:44:22;;;;;;;19.08;7.13;;;;;;;7.12;71.92;102301.41;4990067;28;20041;-93
2022/03/15 08:46:49;;;;;;;16.90;8.05;;;;;;;7.22;71.75;102305.66;4990748;28;20026;-92
2022/03/15 08:49:16;;;;;;;15.23;7.55;;;;;;;7.27;70.92;102308.25;4987099;28;20037;-91
2022/03/15 08:51:42;;;;;;;15.63;7.75;;;;;;;7.31;71.02;102302.88;4979385;28;20027;-91
2022/03/15 08:54:08;;;;;;;15.15;7.60;;;;;;;7.36;70.68;102302.84;4986428;28;20042;-92
2022/03/15 08:56:35;;;;;;;13.82;7.90;;;;;;;7.27;70.67;102293.22;4982821;28;20066;-91
2022/03/15 08:59:00;;;;;;;14.18;8.20;;;;;;;7.33;70.87;102295.81;4991315;28;20027;-90
2022/03/15 09:01:25;;;;;;;13.93;8.10;;;;;;;7.41;70.69;102301.88;4985692;28;20420;-89
2022/03/15 09:03:51;;;;;;;15.80;7.70;;;;;;;7.48;70.70;102302.63;4985026;28;20116;-91
2022/03/15 09:06:16;;;;;;;13.95;7.43;;;;;;;7.43;70.32;102293.88;4977075;28;20074;-90
2022/03/15 09:08:41;;;;;;;13.93;7.43;;;;;;;7.42;70.31;102289.50;4989548;28;20061;-89
2022/03/15 09:11:08;;;;;;;16.17;7.80;;;;;;;7.45;70.55;102286.81;4986786;28;20035;-89
2022/03/15 09:13:34;;;;;;;15.65;7.35;;;;;;;7.51;70.46;102288.47;4975042;28;20045;-90
2022/03/15 09:16:00;;;;;;;20.77;8.00;;;;;;;7.59;70.28;102292.75;4982475;28;20023;-89
2022/03/15 09:18:27;;;;;;;13.60;7.40;;;;;;;7.62;69.80;102283.91;4983408;28;20089;-92
2022/03/15 09:20:53;;;;;;;16.08;7.65;;;;;;;7.65;70.23;102282.09;4981500;28;20022;-88
2022/03/15 09:23:19;;;;;;;14.20;7.93;;;;;;;7.71;69.96;102295.22;4986339;28;20031;-90
2022/03/15 09:25:44;;;;;;;14.95;7.75;;;;;;;7.75;69.93;102290.75;4982019;28;20077;-90
2022/03/15 09:28:10;;;;;;;13.30;7.63;;;;;;;7.80;69.84;102290.69;4986374;28;20042;-90
2022/03/15 09:30:37;;;;;;;13.98;7.65;;;;;;;7.81;70.05;102280.03;4980845;28;20554;-87
2022/03/15 09:33:02;;;;;;;14.68;7.47;;;;;;;7.88;69.89;102276.41;4984454;28;20033;-89
2022/03/15 09:35:28;;;;;;;13.57;7.38;;;;;;;7.89;68.89;102277.28;4978576;28;20030;-87
2022/03/15 09:37:54;;;;;;;11.07;7.50;;;;;;;7.94;68.96;102286.00;4981812;28;20388;-87
2022/03/15 09:40:25;;;;;;;13.98;7.88;;;;;;;7.98;68.96;102278.00;4976956;28;20276;-87
2022/03/15 09:42:56;;;;;;;12.20;7.47;;;;;;;8.05;69.04;102288.50;4973500;28;20030;-87
2022/03/15 09:45:23;;;;;;;11.05;6.90;;;;;;;8.09;68.71;102280.47;4978399;28;20034;-87
2022/03/15 09:47:53;;;;;;;17.05;7.88;;;;;;;8.14;69.13;102275.06;4980587;28;20493;-89
2022/03/15 09:50:20;;;;;;;12.70;7.15;;;;;;;8.19;69.16;102270.56;4982926;28;20072;-90
2022/03/15 09:52:46;;;;;;;21.08;7.57;;;;;;;8.29;68.84;102264.19;4983923;28;20142;-88
2022/03/15 09:55:12;;;;;;;11.52;7.38;;;;;;;8.37;68.33;102270.25;4979404;28;20672;-89
2022/03/15 09:57:39;;;;;;;13.25;6.82;;;;;;;8.41;67.67;102269.31;4978798;28;20121;-88
2022/03/15 10:00:05;;;;;;;18.88;7.20;;;;;;;8.40;67.28;102261.34;4969972;28;20074;-87
2022/03/15 10:02:31;;;;;;;15.52;7.28;;;;;;;8.52;67.69;102262.91;4981834;28;20034;-88
2022/03/15 10:04:56;;;;;;;12.70;7.30;;;;;;;8.52;66.99;102250.50;4982182;28;20031;-88
2022/03/15 10:07:22;;;;;;;13.25;7.18;;;;;;;8.59;67.14;102252.13;4979014;28;20100;-88
2022/03/15 10:09:47;;;;;;;13.10;6.65;;;;;;;8.64;66.33;102246.72;4983982;28;20491;-89
2022/03/15 10:12:13;;;;;;;12.60;6.50;;;;;;;8.65;66.44;102245.81;4970429;28;20403;-88
2022/03/15 10:14:46;;;;;;;13.38;7.05;;;;;;;8.72;66.13;102250.09;4981570;28;20069;-89
2022/03/15 10:17:14;;;;;;;13.38;7.20;;;;;;;8.77;66.13;102247.34;4990724;28;20030;-88
2022/03/15 10:19:53;;;;;;;10.93;7.28;;;;;;;8.87;66.12;102257.75;4990024;28;20117;-89
2022/03/15 10:22:23;;;;;;;12.38;7.75;;;;;;;8.93;66.13;102248.78;4976694;28;20531;-88
2022/03/15 10:24:49;;;;;;;11.30;6.70;;;;;;;9.04;65.15;102256.53;4976567;28;20027;-88
2022/03/15 10:27:15;;;;;;;13.88;7.82;;;;;;;9.18;65.13;102254.41;4981239;28;20045;-88
2022/03/15 10:29:42;;;;;;;11.35;6.57;;;;;;;9.29;64.24;102257.72;4989162;28;20085;-89
2022/03/15 10:32:08;;;;;;;14.07;7.20;;;;;;;9.33;63.72;102250.56;4983540;28;20080;-88
2022/03/15 10:34:33;;;;;;;17.05;7.00;;;;;;;9.40;64.21;102249.47;4977952;28;20434;-89
2022/03/15 10:36:58;;;;;;;14.20;7.07;;;;;;;9.54;64.27;102252.69;4982125;28;20026;-87
2022/03/15 10:39:25;;;;;;;19.60;7.57;;;;;;;9.66;63.53;102243.56;4975049;28;20034;-89
2022/03/15 10:41:53;;;;;;;13.85;7.10;;;;;;;9.80;62.97;102252.06;4974439;28;20318;-88
2022/03/15 10:44:31;;;;;;;8.88;6.55;;;;;;;9.91;62.99;102252.66;4985839;28;20030;-89
2022/03/15 10:47:07;;;;;;;11.38;7.32;;;;;;;10.04;62.66;102247.03;4977883;28;20400;-89
2022/03/15 10:49:47;;;;;;;11.20;6.75;;;;;;;10.07;62.38;102234.50;4980988;28;20038;-89
2022/03/15 10:52:14;;;;;;;9.27;6.38;;;;;;;10.21;61.39;102234.13;4990314;28;20042;-89
2022/03/15 10:54:39;;;;;;;14.07;7.07;;;;;;;10.25;61.30;102232.31;4985896;28;20469;-89
2022/03/15 10:57:04;;;;;;;10.50;6.85;;;;;;;10.22;61.15;102218.13;4972313;28;20039;-89
2022/03/15 10:59:30;;;;;;;13.98;6.40;;;;;;;10.25;61.18;102217.22;4972005;28;20038;-88
2022/03/15 11:01:55;;;;;;;12.70;7.40;;;;;;;10.36;61.50;102228.41;4976391;28;20030;-88
2022/03/15 11:04:21;;;;;;;10.50;6.72;;;;;;;10.41;61.02;102218.53;4989412;28;20035;-88
2022/03/15 11:06:52;;;;;;;11.75;6.80;;;;;;;10.58;61.12;102211.84;4982317;28;20073;-88
2022/03/15 11:09:26;;;;;;;14.05;6.60;;;;;;;10.67;61.18;102209.78;4978874;28;20042;-87
2022/03/15 11:12:04;;;;;;;12.25;6.13;;;;;;;10.74;61.19;102199.81;4980590;28;20431;-90
2022/03/15 11:14:36;;;;;;;8.32;6.10;;;;;;;10.87;60.13;102209.19;4979051;28;20049;-87
2022/03/15 11:17:03;;;;;;;10.43;6.45;;;;;;;11.06;59.85;102208.63;4990943;28;20471;-87